Time;durP1;ratioP1;P1;durP2;ratioP2;P2;SDS_P1;SDS_P2;PMS_P1;PMS_P2;Temp;Humidity;BMP_temperature;BMP_pressure;BME280_temperature;BME280_humidity;BME280_pressure;Samples;Min_cycle;Max_cycle;Signal;HPM_P1;HPM_P2
2021/04/26 00:02:28;;;;;;;5.95;2.25;;;3.80;99.90;;;;;;12391123;28;20092;-80
2021/04/26 00:08:30;;;;;;;2.80;1.40;;;3.80;99.90;;;;;;12390402;28;20160;-80
2021/04/26 00:14:31;;;;;;;5.55;1.80;;;3.60;99.90;;;;;;12385703;28;20096;-80
2021/04/26 00:20:33;;;;;;;6.95;1.90;;;3.60;99.90;;;;;;12402528;28;20042;-79
2021/04/26 00:26:34;;;;;;;4.03;1.90;;;3.40;99.90;;;;;;12388609;28;20054;-79
2021/04/26 00:32:36;;;;;;;4.57;1.75;;;3.40;99.90;;;;;;12388857;28;20049;-80
2021/04/26 00:38:37;;;;;;;5.28;1.90;;;3.50;99.90;;;;;;12388541;28;20050;-79
2021/04/26 00:44:39;;;;;;;3.38;1.83;;;3.60;99.90;;;;;;12384719;28;20651;-80
2021/04/26 00:50:42;;;;;;;3.67;1.67;;;3.50;99.90;;;;;;12385576;28;20137;-80
2021/04/26 00:56:43;;;;;;;6.18;1.70;;;3.50;99.90;;;;;;12389333;28;20053;-80
2021/04/26 01:02:45;;;;;;;3.92;1.50;;;3.40;99.90;;;;;;12378879;28;20125;-79
2021/04/26 01:08:46;;;;;;;3.30;1.60;;;3.60;99.90;;;;;;12391706;28;20142;-79
2021/04/26 01:14:53;;;;;;;3.22;1.58;;;3.40;99.90;;;;;;12386982;28;20078;-79
2021/04/26 01:21:16;;;;;;;2.88;1.52;;;3.60;99.90;;;;;;12404369;28;20132;-79
2021/04/26 01:27:27;;;;;;;3.42;1.38;;;3.90;99.90;;;;;;12400769;28;20410;-79
2021/04/26 01:33:33;;;;;;;2.85;1.48;;;3.60;99.90;;;;;;12385780;28;20081;-80
2021/04/26 01:39:37;;;;;;;3.83;1.60;;;3.50;99.90;;;;;;12392010;28;20137;-79
2021/04/26 01:45:40;;;;;;;5.88;1.80;;;3.50;99.90;;;;;;12429422;28;20030;-80
2021/04/26 01:51:42;;;;;;;3.50;1.30;;;3.40;99.90;;;;;;12438754;28;20046;-79
2021/04/26 01:57:45;;;;;;;2.97;1.60;;;3.30;99.90;;;;;;12436218;28;20054;-80
2021/04/26 02:04:01;;;;;;;4.25;1.35;;;3.00;99.90;;;;;;12437085;28;20046;-80
2021/04/26 02:10:05;;;;;;;3.92;1.50;;;2.90;99.90;;;;;;12389939;28;20115;-79
2021/04/26 02:16:06;;;;;;;4.23;1.40;;;3.10;99.90;;;;;;12408396;28;20521;-80
2021/04/26 02:22:10;;;;;;;4.22;1.35;;;3.10;99.90;;;;;;12395140;28;20054;-79
2021/04/26 02:28:13;;;;;;;3.45;1.38;;;2.70;99.90;;;;;;12391759;28;20050;-79
2021/04/26 02:34:25;;;;;;;3.67;1.40;;;2.60;99.90;;;;;;12386402;28;20049;-80
2021/04/26 02:40:30;;;;;;;4.13;1.10;;;2.40;99.90;;;;;;12409989;28;20038;-79
2021/04/26 02:46:34;;;;;;;3.17;1.20;;;2.10;99.90;;;;;;12390719;28;20483;-79
2021/04/26 02:52:36;;;;;;;2.38;1.20;;;1.70;99.90;;;;;;12387457;28;20050;-80
2021/04/26 02:58:38;;;;;;;4.47;1.08;;;1.70;99.90;;;;;;12384918;28;20470;-79
2021/04/26 03:04:40;;;;;;;4.55;1.63;;;1.80;99.90;;;;;;12392419;28;20038;-79
2021/04/26 03:10:42;;;;;;;1.90;1.05;;;1.80;99.90;;;;;;12400704;28;20115;-79
2021/04/26 03:16:44;;;;;;;2.33;1.05;;;1.80;99.90;;;;;;12393349;28;20053;-79
2021/04/26 03:22:48;;;;;;;3.55;1.20;;;1.70;99.90;;;;;;12388783;28;20420;-79
2021/04/26 03:28:50;;;;;;;2.92;1.02;;;1.90;99.90;;;;;;12403388;28;20092;-79
2021/04/26 03:34:53;;;;;;;2.70;1.00;;;2.10;99.90;;;;;;12390721;28;20045;-79
2021/04/26 03:40:57;;;;;;;3.35;1.08;;;1.80;99.90;;;;;;12403496;28;20479;-79
2021/04/26 03:47:01;;;;;;;4.88;1.10;;;1.90;99.90;;;;;;12382966;28;20043;-80
2021/04/26 03:53:03;;;;;;;3.22;0.93;;;1.70;99.90;;;;;;12385287;28;20041;-80
2021/04/26 03:59:04;;;;;;;2.47;1.13;;;1.50;99.90;;;;;;12382957;28;20055;-79
2021/04/26 04:05:07;;;;;;;2.58;1.23;;;1.60;99.90;;;;;;12382876;28;20039;-80
2021/04/26 04:11:08;;;;;;;1.98;1.10;;;1.70;99.90;;;;;;12391266;28;20066;-80
2021/04/26 04:17:09;;;;;;;4.72;1.17;;;1.80;99.90;;;;;;12382857;28;20186;-79
2021/04/26 04:23:11;;;;;;;5.25;1.10;;;1.70;99.90;;;;;;12401323;28;20046;-80
2021/04/26 04:29:15;;;;;;;3.83;1.20;;;1.60;99.90;;;;;;12385452;28;20057;-80
2021/04/26 04:35:16;;;;;;;2.28;1.00;;;1.70;99.90;;;;;;12382159;28;20037;-79
2021/04/26 04:41:17;;;;;;;3.08;1.20;;;1.90;99.90;;;;;;12380469;28;20042;-79
2021/04/26 04:47:18;;;;;;;3.50;1.40;;;2.20;99.90;;;;;;12378792;28;20092;-80
2021/04/26 04:53:20;;;;;;;4.25;1.20;;;2.70;99.90;;;;;;12382581;28;20109;-80
2021/04/26 04:59:21;;;;;;;3.40;1.23;;;3.00;99.90;;;;;;12387465;28;20126;-80
2021/04/26 05:05:23;;;;;;;4.05;1.30;;;3.60;99.90;;;;;;12389477;28;20042;-79
2021/04/26 05:11:24;;;;;;;4.38;1.65;;;4.20;99.90;;;;;;12393471;28;20727;-80
2021/04/26 05:17:26;;;;;;;5.22;1.70;;;4.60;99.90;;;;;;12393559;28;20088;-80
2021/04/26 05:23:30;;;;;;;4.97;1.90;;;5.00;99.90;;;;;;12383639;28;20507;-80
2021/04/26 05:29:31;;;;;;;3.22;1.52;;;6.70;99.90;;;;;;12386328;28;20096;-80
2021/04/26 05:35:33;;;;;;;4.38;2.13;;;7.90;99.90;;;;;;12342802;28;20050;-80
2021/04/26 05:41:34;;;;;;;5.88;1.60;;;8.30;99.90;;;;;;12351575;28;20318;-80
2021/04/26 05:47:38;;;;;;;3.40;1.50;;;9.40;99.90;;;;;;12384447;28;20078;-80
2021/04/26 05:53:39;;;;;;;6.10;1.35;;;10.50;99.90;;;;;;12393939;28;20100;-80
2021/04/26 05:59:41;;;;;;;7.03;1.75;;;10.80;99.90;;;;;;12390789;28;20502;-80
2021/04/26 06:05:42;;;;;;;6.38;1.95;;;9.10;99.90;;;;;;12385656;28;20121;-80
2021/04/26 06:11:50;;;;;;;3.95;1.90;;;7.70;99.90;;;;;;12403387;28;20042;-80
2021/04/26 06:17:52;;;;;;;7.75;2.08;;;6.80;99.90;;;;;;12387277;28;20061;-80
2021/04/26 06:23:54;;;;;;;7.55;1.80;;;6.50;99.90;;;;;;12376780;28;20043;-79
2021/04/26 06:29:56;;;;;;;3.97;1.67;;;6.70;99.90;;;;;;12375900;28;20109;-80
2021/04/26 06:35:57;;;;;;;4.57;1.42;;;7.00;99.90;;;;;;12383876;28;20112;-80
2021/04/26 06:42:00;;;;;;;3.63;1.05;;;7.20;99.90;;;;;;12383191;28;20125;-80
2021/04/26 06:48:01;;;;;;;5.75;2.05;;;7.10;99.90;;;;;;12385984;28;20557;-80
2021/04/26 06:54:03;;;;;;;4.18;1.13;;;7.20;99.90;;;;;;12406833;28;20046;-80
2021/04/26 07:00:06;;;;;;;3.88;0.90;;;7.30;99.90;;;;;;12386027;28;20143;-80
2021/04/26 07:06:07;;;;;;;2.95;0.88;;;7.30;99.90;;;;;;12406505;28;20053;-81
2021/04/26 07:12:09;;;;;;;3.13;1.10;;;7.50;99.90;;;;;;12381426;28;20137;-80
2021/04/26 07:18:10;;;;;;;2.28;0.90;;;7.80;99.90;;;;;;12390629;28;20058;-81
2021/04/26 07:24:12;;;;;;;6.28;1.20;;;7.80;99.90;;;;;;12385290;28;20042;-80
2021/04/26 07:30:14;;;;;;;4.18;1.00;;;8.10;99.90;;;;;;12406924;28;21379;-81
2021/04/26 07:36:15;;;;;;;3.90;1.30;;;8.20;99.90;;;;;;12388769;28;20509;-80
2021/04/26 07:42:16;;;;;;;1.50;0.63;;;8.40;99.90;;;;;;12390788;28;20084;-80
2021/04/26 07:48:18;;;;;;;2.55;0.93;;;8.60;99.90;;;;;;12393964;28;20056;-80
2021/04/26 07:54:19;;;;;;;1.83;0.90;;;8.70;99.90;;;;;;12389448;28;20068;-81
2021/04/26 08:00:21;;;;;;;1.08;0.70;;;8.80;99.90;;;;;;12394686;28;20050;-81
2021/04/26 08:06:22;;;;;;;2.65;1.00;;;8.90;99.90;;;;;;12393761;28;20137;-81
2021/04/26 08:12:24;;;;;;;3.03;0.90;;;8.90;99.90;;;;;;12394171;28;20080;-81
2021/04/26 08:18:25;;;;;;;3.35;1.00;;;9.20;99.90;;;;;;12406010;28;20509;-81
2021/04/26 08:24:28;;;;;;;1.73;0.70;;;9.40;99.90;;;;;;12396352;28;20096;-81
2021/04/26 08:30:30;;;;;;;2.38;1.00;;;9.60;99.90;;;;;;12388799;28;20046;-82
2021/04/26 08:36:31;;;;;;;1.92;0.77;;;9.90;99.90;;;;;;12386322;28;20470;-81
2021/04/26 08:42:32;;;;;;;1.70;0.63;;;10.00;99.90;;;;;;12385549;28;20346;-81
2021/04/26 08:48:34;;;;;;;3.13;0.85;;;10.40;99.90;;;;;;12386685;28;20058;-81
2021/04/26 08:54:36;;;;;;;4.07;1.38;;;10.40;99.90;;;;;;12382793;28;20045;-81
2021/04/26 09:00:37;;;;;;;2.65;1.00;;;10.40;99.90;;;;;;12391998;28;20072;-81
2021/04/26 09:07:03;;;;;;;1.85;0.82;;;10.80;99.90;;;;;;12398141;28;20050;-81
2021/04/26 09:13:23;;;;;;;;;;;11.10;99.90;;;;;;12385930;28;20104;-81
2021/04/26 09:19:29;;;;;;;5.28;1.60;;;10.90;99.90;;;;;;12384722;28;20021;-81
2021/04/26 09:25:41;;;;;;;4.15;1.35;;;11.10;99.90;;;;;;12402921;28;20074;-80
2021/04/26 09:32:00;;;;;;;4.35;1.00;;;11.60;99.90;;;;;;12387780;28;20490;-82
2021/04/26 09:38:35;;;;;;;4.07;1.00;;;11.60;99.60;;;;;;12400291;28;20050;-82
2021/04/26 09:44:37;;;;;;;5.75;1.10;;;11.60;99.90;;;;;;12387177;28;20140;-81
2021/04/26 09:50:55;;;;;;;3.33;0.93;;;11.90;96.10;;;;;;12386271;28;20383;-81
2021/04/26 09:56:57;;;;;;;2.83;0.93;;;12.10;99.90;;;;;;12391218;28;20130;-81
2021/04/26 10:02:59;;;;;;;2.65;0.90;;;12.60;99.90;;;;;;12383196;28;20086;-81
2021/04/26 10:09:04;;;;;;;3.72;1.10;;;12.30;99.90;;;;;;12385989;28;20054;-81
2021/04/26 10:15:06;;;;;;;4.28;1.35;;;13.00;99.90;;;;;;12388306;28;20054;-81
2021/04/26 10:21:22;;;;;;;1.38;0.82;;;13.00;93.60;;;;;;12393803;28;20050;-81
2021/04/26 10:27:43;;;;;;;2.72;1.10;;;12.70;95.80;;;;;;12411249;28;20045;-81
2021/04/26 10:33:55;;;;;;;3.85;1.15;;;13.50;99.90;;;;;;12400601;28;20077;-81
2021/04/26 10:40:00;;;;;;;2.22;1.17;;;13.50;99.90;;;;;;12403907;28;20410;-81
2021/04/26 10:46:15;;;;;;;4.15;1.27;;;13.60;93.30;;;;;;12407407;28;20046;-81
2021/04/26 10:52:30;;;;;;;3.00;1.15;;;13.70;99.90;;;;;;12404748;28;20054;-81
2021/04/26 10:58:34;;;;;;;3.27;1.57;;;13.90;99.40;;;;;;12411602;28;20047;-81
2021/04/26 11:04:36;;;;;;;2.40;1.10;;;13.00;91.40;;;;;;12394656;28;20452;-82
2021/04/26 11:10:46;;;;;;;3.75;1.20;;;13.20;93.70;;;;;;12388513;28;20085;-81
2021/04/26 11:16:55;;;;;;;2.63;1.30;;;14.00;98.90;;;;;;12416280;28;20054;-82
2021/04/26 11:22:57;;;;;;;2.92;1.23;;;14.20;87.80;;;;;;12413810;28;20129;-82
2021/04/26 11:29:01;;;;;;;4.10;1.60;;;14.30;91.20;;;;;;12450390;28;20030;-81
2021/04/26 11:35:04;;;;;;;;;;;14.60;96.50;;;;;;12444698;28;20108;-81
2021/04/26 11:41:05;;;;;;;4.80;1.30;;;14.70;96.00;;;;;;12396943;28;20001;-81
2021/04/26 11:47:13;;;;;;;2.97;1.10;;;14.60;94.40;;;;;;12402215;28;20133;-81
2021/04/26 11:53:28;;;;;;;3.88;1.30;;;14.50;92.10;;;;;;12416646;28;20501;-81
2021/04/26 11:59:30;;;;;;;2.28;1.17;;;15.10;92.70;;;;;;12416192;28;20362;-81
2021/04/26 12:05:32;;;;;;;4.43;1.35;;;14.80;82.40;;;;;;12398840;28;20042;-81
2021/04/26 12:11:33;;;;;;;5.85;1.73;;;15.10;87.50;;;;;;12391048;28;20054;-82
2021/04/26 12:17:37;;;;;;;3.50;1.33;;;15.10;79.30;;;;;;12401080;28;20142;-81
2021/04/26 12:23:39;;;;;;;4.82;1.58;;;15.70;90.60;;;;;;12385790;28;20095;-82
2021/04/26 12:29:40;;;;;;;6.60;1.30;;;15.10;75.80;;;;;;12393798;28;20107;-81
2021/04/26 12:35:42;;;;;;;2.95;1.40;;;16.10;92.40;;;;;;12389117;28;20155;-81
2021/04/26 12:41:43;;;;;;;5.32;1.50;;;16.30;88.00;;;;;;12401582;28;20053;-82
2021/04/26 12:47:49;;;;;;;4.60;1.58;;;15.70;88.30;;;;;;12387230;28;20045;-81
2021/04/26 12:53:50;;;;;;;5.65;1.80;;;15.70;90.40;;;;;;12384070;28;20050;-80
2021/04/26 12:59:52;;;;;;;3.92;1.58;;;15.80;85.50;;;;;;12384047;28;20084;-80
2021/04/26 13:06:03;;;;;;;2.47;1.50;;;15.60;91.60;;;;;;12386838;28;20051;-81
2021/04/26 13:12:05;;;;;;;8.05;1.80;;;15.80;88.20;;;;;;12403164;28;20077;-81
2021/04/26 13:18:26;;;;;;;5.13;1.60;;;15.50;81.40;;;;;;12402750;28;20563;-81
2021/04/26 13:24:35;;;;;;;5.00;2.03;;;16.50;81.50;;;;;;12373176;28;20467;-81
2021/04/26 13:30:36;;;;;;;3.83;1.73;;;16.80;90.40;;;;;;12377547;28;20100;-81
2021/04/26 13:36:38;;;;;;;3.88;1.60;;;16.60;88.30;;;;;;12381269;28;20046;-82
2021/04/26 13:42:39;;;;;;;3.72;1.92;;;16.20;89.90;;;;;;12375132;28;20073;-81
2021/04/26 13:48:40;;;;;;;4.90;2.00;;;16.40;91.10;;;;;;12369567;28;20112;-82
2021/04/26 13:54:42;;;;;;;5.07;1.90;;;16.30;89.30;;;;;;12378062;28;20752;-82
2021/04/26 14:00:55;;;;;;;4.38;2.08;;;16.50;83.30;;;;;;12375428;28;20724;-81
2021/04/26 14:06:56;;;;;;;5.45;1.80;;;16.10;87.50;;;;;;12377458;28;20408;-80
2021/04/26 14:12:58;;;;;;;3.60;1.92;;;16.60;91.50;;;;;;12389201;28;20394;-81
2021/04/26 14:19:04;;;;;;;3.85;1.83;;;16.50;84.10;;;;;;12373696;28;20062;-81
2021/04/26 14:25:07;;;;;;;4.47;1.95;;;16.40;84.20;;;;;;12390653;28;20053;-81
2021/04/26 14:31:08;;;;;;;6.10;2.30;;;15.90;86.40;;;;;;12375797;28;20379;-81
2021/04/26 14:37:10;;;;;;;5.10;1.90;;;16.20;76.10;;;;;;12369001;28;20058;-81
2021/04/26 14:43:12;;;;;;;5.40;2.00;;;16.30;84.90;;;;;;12379230;28;20188;-81
2021/04/26 14:49:13;;;;;;;3.40;1.80;;;16.30;86.90;;;;;;12380705;28;20136;-81
2021/04/26 14:55:16;;;;;;;4.63;1.80;;;16.00;79.40;;;;;;12373304;28;20201;-81
2021/04/26 15:01:17;;;;;;;4.78;1.75;;;16.70;87.70;;;;;;12381563;28;20616;-81
2021/04/26 15:07:19;;;;;;;3.42;2.00;;;16.80;88.30;;;;;;12382615;28;20090;-81
2021/04/26 15:13:21;;;;;;;6.05;2.28;;;16.70;82.90;;;;;;12385309;28;20096;-80
2021/04/26 15:19:22;;;;;;;4.43;1.77;;;16.20;86.40;;;;;;12387413;28;20046;-81
2021/04/26 15:25:24;;;;;;;6.13;2.08;;;15.80;79.40;;;;;;12388352;28;20479;-81
2021/04/26 15:31:26;;;;;;;3.92;1.90;;;15.40;84.20;;;;;;12386075;28;21056;-81
2021/04/26 15:37:28;;;;;;;4.07;1.83;;;15.70;91.90;;;;;;12389682;28;20050;-81
2021/04/26 15:43:29;;;;;;;4.35;2.17;;;16.30;91.80;;;;;;12400960;28;21041;-80
2021/04/26 15:49:30;;;;;;;4.30;2.38;;;16.60;85.90;;;;;;12382583;28;20038;-81
2021/04/26 15:55:32;;;;;;;3.83;2.10;;;16.80;89.20;;;;;;12370985;28;20038;-80
2021/04/26 16:01:33;;;;;;;9.15;2.50;;;16.70;91.90;;;;;;12392877;28;20047;-80
2021/04/26 16:07:35;;;;;;;3.47;1.83;;;16.90;91.10;;;;;;12390159;28;20105;-80
2021/04/26 16:13:36;;;;;;;3.47;1.92;;;16.70;83.00;;;;;;12378752;28;20050;-81
2021/04/26 16:19:37;;;;;;;5.55;2.08;;;16.50;90.90;;;;;;12377615;28;20335;-80
2021/04/26 16:25:39;;;;;;;4.53;2.03;;;16.90;91.80;;;;;;12380140;28;20359;-81
2021/04/26 16:31:40;;;;;;;3.40;1.88;;;17.10;84.50;;;;;;12376139;28;20046;-80
2021/04/26 16:37:42;;;;;;;2.97;1.80;;;17.50;90.20;;;;;;12375978;28;20073;-80
2021/04/26 16:43:44;;;;;;;4.68;2.20;;;17.20;89.10;;;;;;12388844;28;20049;-80
2021/04/26 16:49:46;;;;;;;4.97;2.13;;;16.30;91.30;;;;;;12390943;28;20210;-81
2021/04/26 16:55:48;;;;;;;4.00;2.03;;;15.90;91.20;;;;;;12384627;28;20112;-81
2021/04/26 17:01:49;;;;;;;4.40;2.13;;;15.60;93.30;;;;;;12377137;28;20115;-81
2021/04/26 17:07:55;;;;;;;5.45;2.22;;;15.30;94.40;;;;;;12392699;28;20069;-81
2021/04/26 17:13:56;;;;;;;3.95;2.15;;;15.10;93.70;;;;;;12375330;28;20137;-81
2021/04/26 17:19:58;;;;;;;5.32;2.10;;;14.90;94.20;;;;;;12374577;28;20054;-80
2021/04/26 17:25:59;;;;;;;7.43;2.03;;;15.10;95.80;;;;;;12391557;28;20545;-81
2021/04/26 17:32:00;;;;;;;3.75;2.05;;;15.00;95.80;;;;;;12377037;28;20043;-80
2021/04/26 17:38:02;;;;;;;4.55;2.17;;;15.60;95.60;;;;;;12383816;28;20470;-80
2021/04/26 17:44:04;;;;;;;5.57;2.45;;;15.50;95.90;;;;;;12375005;28;20091;-81
2021/04/26 17:50:07;;;;;;;6.32;2.10;;;15.20;96.10;;;;;;12393675;28;20114;-81
2021/04/26 17:56:08;;;;;;;4.35;2.50;;;14.50;96.60;;;;;;12384170;28;20047;-81
2021/04/26 18:02:09;;;;;;;4.70;2.30;;;13.50;97.90;;;;;;12386732;28;20612;-80
2021/04/26 18:08:11;;;;;;;3.88;2.13;;;13.00;99.90;;;;;;12445817;28;20057;-81
2021/04/26 18:14:12;;;;;;;3.65;2.05;;;12.50;99.90;;;;;;12426516;28;20050;-81
2021/04/26 18:20:16;;;;;;;4.82;2.00;;;12.10;99.90;;;;;;12379255;28;20537;-80
2021/04/26 18:26:18;;;;;;;4.87;2.10;;;12.00;99.90;;;;;;12369889;28;20061;-80
2021/04/26 18:32:21;;;;;;;6.40;2.15;;;11.70;99.90;;;;;;12375326;28;20065;-80
2021/04/26 18:38:23;;;;;;;2.92;1.92;;;11.40;99.90;;;;;;12379908;28;20054;-80
2021/04/26 18:44:24;;;;;;;3.35;1.70;;;11.10;99.90;;;;;;12383494;28;20087;-80
2021/04/26 18:50:26;;;;;;;5.60;2.10;;;10.80;99.90;;;;;;12375769;28;20520;-80
2021/04/26 18:56:27;;;;;;;8.55;2.58;;;10.60;99.90;;;;;;12381142;28;20530;-80
2021/04/26 19:02:28;;;;;;;6.40;2.30;;;10.30;99.90;;;;;;12378561;28;20084;-80
2021/04/26 19:08:30;;;;;;;5.10;2.17;;;10.10;99.90;;;;;;12396637;28;20113;-79
2021/04/26 19:14:37;;;;;;;7.20;3.10;;;10.00;99.90;;;;;;12390000;28;20713;-79
2021/04/26 19:20:38;;;;;;;9.07;3.00;;;9.60;99.90;;;;;;12390978;28;20085;-79
2021/04/26 19:26:40;;;;;;;6.57;2.85;;;9.30;99.90;;;;;;12388341;28;20050;-79
2021/04/26 19:32:41;;;;;;;9.55;3.25;;;9.10;99.90;;;;;;12374594;28;20510;-80
2021/04/26 19:38:43;;;;;;;8.40;2.70;;;8.80;99.90;;;;;;12379742;28;20054;-79
2021/04/26 19:44:44;;;;;;;7.95;2.50;;;8.70;99.90;;;;;;12386731;28;20042;-79
2021/04/26 19:50:48;;;;;;;6.13;2.80;;;8.70;99.90;;;;;;12390115;28;20046;-79
2021/04/26 19:56:49;;;;;;;6.97;2.80;;;8.30;99.90;;;;;;12382191;28;20672;-79
2021/04/26 20:02:51;;;;;;;8.40;2.80;;;8.20;99.90;;;;;;12379443;28;20302;-79
2021/04/26 20:08:53;;;;;;;5.57;2.88;;;7.90;99.90;;;;;;12377793;28;20104;-79
2021/04/26 20:14:54;;;;;;;5.45;2.67;;;7.80;99.90;;;;;;12383894;28;20077;-79
2021/04/26 20:20:55;;;;;;;5.57;2.88;;;7.80;99.90;;;;;;12381162;28;20133;-79
2021/04/26 20:26:57;;;;;;;7.82;2.60;;;7.70;99.90;;;;;;12379258;28;20505;-79
2021/04/26 20:32:59;;;;;;;8.10;2.63;;;7.60;99.90;;;;;;12375392;28;20734;-79
2021/04/26 20:39:00;;;;;;;8.75;3.00;;;7.50;99.90;;;;;;12380125;28;20070;-79
2021/04/26 20:45:03;;;;;;;5.70;2.42;;;7.20;99.90;;;;;;12374298;28;20089;-79
2021/04/26 20:51:05;;;;;;;5.28;2.50;;;7.30;99.90;;;;;;12390014;28;20154;-79
2021/04/26 20:57:06;;;;;;;5.25;2.58;;;7.30;99.90;;;;;;12374321;28;20046;-79
2021/04/26 21:03:08;;;;;;;4.35;2.50;;;7.10;99.90;;;;;;12381530;28;20058;-79
2021/04/26 21:09:12;;;;;;;5.45;2.70;;;6.60;99.90;;;;;;12378519;28;20146;-79
2021/04/26 21:15:15;;;;;;;5.75;2.83;;;6.40;99.90;;;;;;12376409;28;21444;-79
2021/04/26 21:21:17;;;;;;;4.53;2.50;;;6.60;99.90;;;;;;12379449;28;20449;-80
2021/04/26 21:27:18;;;;;;;4.00;2.65;;;6.70;99.90;;;;;;12390823;28;20124;-79
2021/04/26 21:33:19;;;;;;;5.60;2.83;;;6.60;99.90;;;;;;12381629;28;20129;-79
2021/04/26 21:39:21;;;;;;;5.57;2.80;;;6.50;99.90;;;;;;12394321;28;20482;-79
2021/04/26 21:45:25;;;;;;;5.82;2.90;;;6.60;99.90;;;;;;12381971;28;20215;-79
2021/04/26 21:51:27;;;;;;;5.25;2.88;;;6.40;99.90;;;;;;12378278;28;20057;-79
2021/04/26 21:57:29;;;;;;;5.10;2.67;;;6.40;99.90;;;;;;12394223;28;20070;-79
2021/04/26 22:03:30;;;;;;;4.78;2.65;;;6.40;99.90;;;;;;12389550;28;20598;-79
2021/04/26 22:09:31;;;;;;;4.57;2.88;;;6.20;99.90;;;;;;12377958;28;20141;-79
2021/04/26 22:15:32;;;;;;;4.13;2.75;;;6.30;99.90;;;;;;12384332;28;20050;-79
2021/04/26 22:21:34;;;;;;;5.10;2.88;;;6.30;99.90;;;;;;12380365;28;20134;-79
2021/04/26 22:27:36;;;;;;;4.72;2.58;;;6.10;99.90;;;;;;12387615;28;20107;-79
2021/04/26 22:33:37;;;;;;;11.85;2.90;;;6.00;99.90;;;;;;12380953;28;20066;-79
2021/04/26 22:39:39;;;;;;;7.60;2.50;;;5.70;99.90;;;;;;12381894;28;20107;-79
2021/04/26 22:45:40;;;;;;;4.88;2.70;;;5.70;99.90;;;;;;12397212;28;20042;-79
2021/04/26 22:51:42;;;;;;;5.47;2.58;;;5.60;99.90;;;;;;12398766;28;20171;-79
2021/04/26 22:57:43;;;;;;;5.88;2.80;;;5.60;99.90;;;;;;12377424;28;20062;-79
2021/04/26 23:03:45;;;;;;;6.53;2.47;;;5.40;99.90;;;;;;12388323;28;20046;-79
2021/04/26 23:09:46;;;;;;;5.63;2.25;;;5.40;99.90;;;;;;12381367;28;22299;-79
2021/04/26 23:15:47;;;;;;;5.75;2.33;;;5.40;99.90;;;;;;12384881;28;20633;-79
2021/04/26 23:21:49;;;;;;;4.68;2.10;;;5.40;99.90;;;;;;12382541;28;20042;-79
2021/04/26 23:27:50;;;;;;;4.80;2.20;;;5.30;99.90;;;;;;12381405;28;20135;-79
2021/04/26 23:33:51;;;;;;;7.72;2.30;;;5.30;99.90;;;;;;12381882;28;20054;-79
2021/04/26 23:39:52;;;;;;;3.67;2.00;;;5.40;99.90;;;;;;12383225;28;20049;-79
2021/04/26 23:45:54;;;;;;;5.82;2.47;;;5.30;99.90;;;;;;12386544;28;20104;-79
2021/04/26 23:51:55;;;;;;;6.55;2.20;;;4.90;99.90;;;;;;12382359;28;20095;-79
2021/04/26 23:57:56;;;;;;;4.72;2.00;;;5.10;99.90;;;;;;12380866;28;20078;-79
